Vento Di Levante — IBNN — position and weather

sailwx.info

Track history (hours):
 
Tides and Currents Weather Stations Pressure Air Temp Water Temp Dewpoint Dewpoint Depression Visibility Wind Speed Wind Dir Waves Ship Positions

Vento Di Levante

Last reported at 2017-Nov-24 02:59 UTC. Time now 2017-Nov-25 05:54 UTC.
Position N 05°56' E 001°27'.

Length 211 m; draft 8.1 m.

Type: Ship (hazmat cat A). MMSI: 247304200.

Date/timePositionNaut miles runAvg speedWind from/ knotsBaromVisibWave heightAir tempDewpointWater temp
2017-Nov-24 02:59N 05°56' E 001°27'5810.5
2017-Nov-23 21:30N 05°25' E 000°38'816.3
2017-Nov-23 21:00N 05°22' E 000°30'816.3
2017-Nov-23 20:30N 05°19' E 000°23'816.4
2017-Nov-23 20:00N 05°16' E 000°15'816.4
2017-Nov-23 19:30N 05°13' E 000°07'816.1
2017-Nov-23 19:00N 05°10' W 000°00'816.4
2017-Nov-23 18:30N 05°07' W 000°08'1116.6
2017-Nov-23 17:52N 05°03' W 000°18'  
Track history (hours):
 
Tides and Currents Weather Stations Pressure Air Temp Water Temp Dewpoint Dewpoint Depression Visibility Wind Speed Wind Dir Waves Ship Positions

Vento Di Levante

Last reported at 2017-Nov-24 02:59 UTC. Time now 2017-Nov-25 05:54 UTC.
Position N 05°56' E 001°27'.

Length 211 m; draft 8.1 m.

Type: Ship (hazmat cat A). MMSI: 247304200.

Date/timePositionNaut miles runAvg speedWind from/ knotsBaromVisibWave heightAir tempDewpointWater temp
2017-Nov-24 02:59N 05°56' E 001°27'5810.5
2017-Nov-23 21:30N 05°25' E 000°38'816.3
2017-Nov-23 21:00N 05°22' E 000°30'816.3
2017-Nov-23 20:30N 05°19' E 000°23'816.4
2017-Nov-23 20:00N 05°16' E 000°15'816.4
2017-Nov-23 19:30N 05°13' E 000°07'816.1
2017-Nov-23 19:00N 05°10' W 000°00'816.4
2017-Nov-23 18:30N 05°07' W 000°08'1116.6
2017-Nov-23 17:52N 05°03' W 000°18'  

Dump ship's entire track history